Latest Weather Observations for Derby

IDW60801

Issued at 1:32 pm WST Saturday 20 December 2014 (issued every 30 minutes, with the page automatically refreshed every 10 minutes)

About weather observations | Map of weather stations | Latest weather observations for WA | Other Formats
Station Details ID: 003032 Name: DERBY AERO Lat: -17.37 Lon: 123.66 Height: 6.2 m
Data from the previous 72 hours. | See also: Recent months at Derby
Date/Time
WST
Temp
°C
App
Temp
°C
Dew
Point
Rel
Hum
%
Delta-T
°C
Wind Press
QNH
hPa
Press
MSL
hPa
Rain
since 9 am
mm
Dir
 
Spd
km/h
Gust
km/h
Spd
kts
Gust
kts
20/01:30pm 27.0 30.6 24.3 85 1.9 NNW 13 19 7 10 1008.4 1008.3 1.4
20/01:00pm 26.5 30.3 24.0 86 1.7 N 11 17 6 9 1009.0 1008.9 1.4
20/12:30pm 25.6 27.8 24.0 91 1.1 NNE 19 22 10 12 1009.0 1008.9 1.4
20/12:00pm 25.5 30.0 23.9 91 1.1 NNE 7 9 4 5 1009.5 1009.5 1.2
20/11:30am 25.3 29.0 23.9 92 1.0 E 11 15 6 8 1010.5 1010.5 0.4
20/11:00am 25.5 28.5 23.4 88 1.4 E 13 17 7 9 1010.4 1010.4 0.0
20/10:30am 25.1 26.5 23.5 91 1.1 NE 22 32 12 17 1010.9 1010.9 0.0
20/10:00am 26.6 25.7 23.1 81 2.4 E 33 46 18 25 1010.9 1010.9 0.0
20/09:50am 28.1 27.2 22.1 70 4.0 E 30 50 16 27 1011.0 1011.0 0.0
20/09:30am 30.2 30.6 23.1 65 4.9 SE 26 39 14 21 1010.5 1010.5 0.0
20/09:00am 33.2 36.0 25.2 63 5.7 SE 20 28 11 15 1010.5 1010.5 0.0
20/08:30am 31.7 35.2 26.0 72 4.1 SSE 19 24 10 13 1010.9 1010.9 0.0
20/08:00am 30.5 34.6 25.8 76 3.3 S 15 20 8 11 1010.3 1010.3 0.0
20/07:30am 30.2 33.9 25.7 77 3.2 SSW 17 22 9 12 1009.8 1009.8 0.0
20/07:00am 29.2 33.3 25.8 82 2.4 S 15 20 8 11 1009.9 1009.9 0.0
20/06:30am 28.6 33.9 26.4 88 1.6 S 11 13 6 7 1009.7 1009.7 0.0
20/06:00am 28.1 33.8 26.5 91 1.1 SSE 9 11 5 6 1009.2 1009.1 0.0
20/05:30am 28.0 34.0 26.4 91 1.1 S 7 7 4 4 1008.5 1008.4 0.0
20/05:00am 28.0 34.2 26.4 91 1.1 SW 6 7 3 4 1008.2 1008.1 0.0
20/04:30am 28.0 33.7 26.4 91 1.1 SSW 9 11 5 6 1007.8 1007.7 0.0
20/04:00am 28.1 34.1 26.1 89 1.4 SSW 6 7 3 4 1007.9 1007.8 0.0
20/03:30am 28.2 34.0 26.0 88 1.6 S 7 9 4 5 1007.8 1007.7 0.0
20/03:00am 28.4 34.2 26.0 87 1.7 SW 7 11 4 6 1007.7 1007.6 0.0
20/02:30am 28.5 34.2 25.9 86 1.8 S 7 9 4 5 1008.0 1007.9 0.0
20/02:00am 28.7 34.6 25.9 85 2.0 S 6 7 3 4 1008.0 1007.9 0.0
20/01:30am 28.9 34.6 25.9 84 2.1 SSW 7 9 4 5 1008.1 1008.0 0.0
20/01:00am 29.0 33.6 26.0 84 2.1 SW 13 15 7 8 1008.4 1008.3 0.0
20/12:30am 29.2 33.7 25.8 82 2.4 WSW 13 17 7 9 1008.4 1008.3 0.0
20/12:00am 29.6 34.1 25.8 80 2.7 WSW 13 17 7 9 1008.9 1008.8 0.0
 
Date/Time
WST
Temp
°C
App
Temp
°C
Dew
Point
Rel
Hum
%
Delta-T
°C
Wind Press
QNH
hPa
Press
MSL
hPa
Rain
since 9 am
mm
Dir
 
Spd
km/h
Gust
km/h
Spd
kts
Gust
kts
19/11:30pm 29.9 33.7 25.9 79 2.8 W 17 20 9 11 1009.1 1009.0 0.0
19/11:00pm 30.2 34.8 25.9 78 3.1 W 13 17 7 9 1009.2 1009.1 0.0
19/10:30pm 30.2 37.6 26.4 80 2.7 CALM 0 0 0 0 1009.2 1009.1 0.0
19/10:00pm 30.3 37.5 26.2 79 2.9 CALM 0 0 0 0 1009.4 1009.4 0.0
19/09:30pm 30.2 37.7 26.6 81 2.6 CALM 0 0 0 0 1009.2 1009.1 0.0
19/09:00pm 30.8 36.9 26.5 78 3.1 W 7 9 4 5 1009.1 1009.0 0.0
19/08:30pm 31.1 36.6 26.1 75 3.6 W 9 9 5 5 1008.8 1008.7 0.0
19/08:00pm 31.6 36.9 25.9 72 4.1 WSW 9 11 5 6 1008.5 1008.4 0.0
19/07:30pm 31.9 36.9 26.0 71 4.2 W 11 13 6 7 1008.3 1008.2 0.0
19/07:00pm 32.1 37.0 25.9 70 4.4 W 11 13 6 7 1008.3 1008.2 0.0
19/06:30pm 33.3 39.3 24.2 59 6.4 CALM 0 0 0 0 1008.1 1008.0 0.0
19/06:00pm 34.4 39.3 23.1 51 7.8 SW 2 7 1 4 1007.5 1007.4 0.0
19/05:30pm 34.8 38.1 22.5 48 8.5 SSW 9 11 5 6 1006.9 1006.8 0.0
19/05:00pm 34.9 39.4 22.2 47 8.7 SSE 2 7 1 4 1006.6 1006.5 0.0
19/04:30pm 34.7 38.3 23.1 51 8.0 SE 9 20 5 11 1006.6 1006.5 0.0
19/04:00pm 34.9 37.1 22.6 49 8.5 SE 15 20 8 11 1006.7 1006.6 0.0
19/03:30pm 34.5 37.4 23.2 51 7.8 ESE 13 22 7 12 1007.1 1007.0 0.0
19/03:00pm 34.9 37.1 23.2 50 8.1 ESE 17 26 9 14 1007.6 1007.5 0.0
19/02:30pm 34.9 38.4 24.8 55 7.2 ESE 15 24 8 13 1008.1 1008.0 0.0
19/02:00pm 34.4 37.6 23.7 53 7.5 E 13 20 7 11 1008.6 1008.5 0.0
19/01:30pm 34.1 35.7 22.8 51 7.8 SE 19 30 10 16 1009.1 1009.0 0.0
19/01:00pm 33.5 36.4 24.4 59 6.4 SE 17 24 9 13 1009.8 1009.8 0.0
19/12:30pm 32.5 35.9 24.0 61 5.9 SSE 13 19 7 10 1010.2 1010.2 0.0
19/12:00pm 31.7 35.4 24.6 66 5.0 S 13 17 7 9 1010.6 1010.6 0.0
19/11:30am 31.0 34.3 23.9 66 4.9 S 13 17 7 9 1011.0 1011.0 0.0
19/11:00am 30.7 33.5 22.3 61 5.7 S 11 15 6 8 1011.1 1011.1 0.0
19/10:30am 30.5 33.6 22.9 64 5.2 S 11 15 6 8 1011.4 1011.4 0.0
19/10:00am 30.0 34.5 23.9 70 4.2 SE 7 13 4 7 1011.4 1011.4 0.0
19/09:30am 29.0 33.5 23.9 74 3.5 SW 7 11 4 6 1011.5 1011.5 0.0
19/09:00am 28.9 33.0 24.5 77 3.1 SSE 11 13 6 7 1011.9 1011.9 38.0
19/08:30am 28.3 32.6 23.7 76 3.2 S 7 11 4 6 1011.6 1011.6 38.0
19/08:00am 28.1 31.8 23.2 74 3.4 S 9 13 5 7 1011.5 1011.5 38.0
19/07:30am 28.1 32.6 23.7 77 3.0 S 6 9 3 5 1011.3 1011.3 38.0
19/07:00am 26.8 31.0 24.1 85 1.9 SSW 9 11 5 6 1011.2 1011.2 38.0
19/06:30am 26.6 30.3 23.9 85 1.9 SSW 11 13 6 7 1010.8 1010.8 38.0
19/06:00am 26.2 30.0 24.1 88 1.4 S 11 13 6 7 1010.4 1010.4 38.0
19/05:30am 25.8 29.4 23.8 89 1.4 S 11 13 6 7 1009.7 1009.7 38.0
19/05:00am 25.9 29.4 23.6 87 1.6 S 11 15 6 8 1009.6 1009.6 38.0
19/04:30am 26.0 29.1 23.5 86 1.7 SSE 13 19 7 10 1009.5 1009.5 38.0
19/04:00am 26.0 28.0 23.9 88 1.4 S 20 26 11 14 1009.4 1009.4 38.0
19/03:30am 26.0 27.1 23.7 87 1.6 SSE 24 33 13 18 1009.3 1009.2 38.0
19/03:00am 26.3 27.1 23.2 83 2.1 SSE 24 32 13 17 1008.9 1008.8 38.0
19/02:30am 27.1 29.0 22.7 77 3.0 S 17 30 9 16 1008.7 1008.6 38.0
19/02:00am 27.0 29.6 22.6 77 3.0 NNE 13 26 7 14 1007.3 1007.2 38.0
19/01:30am 26.6 29.6 22.7 79 2.6 ENE 11 17 6 9 1007.1 1007.0 37.8
19/01:00am 26.4 29.6 25.9 97 0.4 N 20 22 11 12 1007.6 1007.5 37.0
19/12:30am 25.7 27.8 25.4 98 0.2 N 24 28 13 15 1008.8 1008.7 36.2
19/12:00am 25.4 28.2 25.2 99 0.1 N 20 26 11 14 1010.1 1010.1 35.0
 
Date/Time
WST
Temp
°C
App
Temp
°C
Dew
Point
Rel
Hum
%
Delta-T
°C
Wind Press
QNH
hPa
Press
MSL
hPa
Rain
since 9 am
mm
Dir
 
Spd
km/h
Gust
km/h
Spd
kts
Gust
kts
18/11:30pm 25.3 30.1 25.1 99 0.1 NNE 9 15 5 8 1011.3 1011.3 33.6
18/11:00pm 24.8 28.9 24.6 99 0.1 NNE 11 15 6 8 1011.7 1011.7 31.8
18/10:30pm 24.8 28.9 24.6 99 0.1 ENE 11 17 6 9 1013.5 1013.5 29.2
18/10:00pm 23.9 24.6 23.7 99 0.1 NE 26 35 14 19 1013.6 1013.6 25.0
18/09:30pm 23.1 24.5 22.9 99 0.1 E 20 35 11 19 1013.6 1013.6 16.6
18/09:16pm 23.7 23.2 23.5 99 0.1 ESE 32 54 17 29 1012.5 1012.5 11.6
18/09:05pm 23.1 19.1 22.8 98 0.2 SSE 48 70 26 38 1012.3 1012.3 9.6
18/09:00pm 23.2 17.8 22.9 98 0.2 S 56 78 30 42 1011.9 1011.9 8.0
18/08:54pm 24.3 19.9 24.0 98 0.2 S 54 78 29 42 1011.6 1011.6 5.6
18/08:37pm 26.0 26.5 23.3 85 1.8 S 26 50 14 27 1011.4 1011.4 0.0
18/08:30pm 27.5 29.8 22.7 75 3.3 ESE 15 37 8 20 1011.2 1011.2 0.0
18/08:27pm 29.3 32.5 23.0 69 4.3 ENE 11 19 6 10 1011.0 1011.0 0.0
18/08:00pm 29.9 32.1 22.6 65 5.0 NE 15 20 8 11 1009.0 1008.9 0.0
18/07:30pm 31.0 31.1 22.6 61 5.7 ENE 26 35 14 19 1008.1 1008.0 0.0
18/07:00pm 32.4 35.1 24.7 64 5.4 NE 19 33 10 18 1008.1 1008.0 0.0
18/06:30pm 32.6 35.4 26.4 70 4.5 N 24 32 13 17 1006.8 1006.7 0.0
18/06:00pm 32.6 35.0 26.9 72 4.1 NNW 28 33 15 18 1005.7 1005.6 0.0
18/05:30pm 33.2 34.4 25.7 64 5.3 NNW 30 33 16 18 1005.4 1005.3 0.0
18/05:00pm 34.1 35.7 25.8 62 5.9 NNW 28 32 15 17 1005.5 1005.4 0.0
18/04:30pm 35.3 37.0 24.6 54 7.6 NNW 24 30 13 16 1005.3 1005.2 0.0
18/04:00pm 35.8 37.9 24.1 51 8.2 NNW 20 26 11 14 1004.4 1004.3 0.0
18/03:30pm 36.2 37.8 23.8 49 8.7 NW 22 28 12 15 1004.4 1004.3 0.0
18/03:00pm 36.2 37.9 23.4 47 9.0 NW 20 26 11 14 1004.9 1004.8 0.0
18/02:30pm 36.7 39.3 23.9 47 9.0 NW 17 22 9 12 1005.5 1005.4 0.0
18/02:00pm 36.0 38.4 24.3 51 8.3 NW 19 24 10 13 1006.1 1006.0 0.0
18/01:30pm 36.1 39.1 24.7 52 8.1 NW 17 26 9 14 1006.6 1006.5 0.0
18/01:00pm 36.2 40.8 24.1 49 8.5 NNW 7 13 4 7 1007.0 1006.9 0.0
18/12:30pm 36.0 40.5 23.6 48 8.7 SW 6 15 3 8 1007.3 1007.2 0.0
18/12:00pm 36.1 41.4 25.3 53 7.7 NW 7 11 4 6 1007.8 1007.7 0.0
18/11:30am 35.0 39.5 24.0 53 7.7 NNW 7 15 4 8 1008.2 1008.1 0.0
18/11:00am 34.1 37.9 23.5 54 7.4 NNW 9 13 5 7 1008.7 1008.6 0.0
18/10:30am 34.0 39.0 25.4 61 6.1 WNW 9 15 5 8 1008.8 1008.7 0.0
18/10:00am 33.2 38.6 25.2 63 5.7 WSW 6 13 3 7 1009.1 1009.0 0.0
18/09:30am 32.1 37.1 25.4 67 4.8 W 9 15 5 8 1009.4 1009.4 0.0
18/09:00am 32.0 36.6 25.3 67 4.7 SW 11 19 6 10 1009.4 1009.4 0.0
18/08:30am 31.4 35.6 25.3 70 4.3 SSW 13 17 7 9 1009.3 1009.2 0.0
18/08:00am 30.9 35.6 25.5 73 3.8 WSW 11 17 6 9 1009.3 1009.2 0.0
18/07:30am 30.2 35.6 25.5 76 3.3 SSW 7 13 4 7 1009.2 1009.1 0.0
18/07:00am 29.8 35.3 25.3 77 3.2 WSW 6 9 3 5 1008.9 1008.8 0.0
18/06:30am 29.4 36.2 25.6 80 2.7 CALM 0 0 0 0 1008.5 1008.4 0.0
18/06:00am 28.1 35.0 25.7 87 1.7 CALM 0 0 0 0 1008.2 1008.1 0.0
18/05:30am 28.0 35.1 26.0 89 1.4 CALM 0 0 0 0 1007.8 1007.7 0.0
18/05:00am 27.7 34.6 25.7 89 1.4 CALM 0 0 0 0 1007.5 1007.4 0.0
18/04:30am 27.8 34.6 25.6 88 1.5 CALM 0 0 0 0 1007.3 1007.2 0.0
18/04:00am 27.9 34.7 25.5 87 1.7 CALM 0 0 0 0 1007.1 1007.0 0.0
18/03:30am 28.0 33.6 25.4 86 1.8 SW 6 7 3 4 1006.9 1006.8 0.0
18/03:00am 28.1 33.2 25.5 86 1.8 SW 9 11 5 6 1006.7 1006.6 0.0
18/02:30am 28.3 33.7 25.5 85 2.0 SW 7 11 4 6 1006.6 1006.5 0.0
18/02:00am 28.4 33.0 25.4 84 2.1 SSW 11 15 6 8 1006.3 1006.2 0.0
18/01:30am 28.4 33.0 25.4 84 2.1 SW 11 15 6 8 1006.4 1006.3 0.0
18/01:00am 28.7 32.1 25.3 82 2.4 WSW 17 20 9 11 1006.6 1006.5 0.0
18/12:30am 28.9 32.2 25.1 80 2.7 SW 17 22 9 12 1006.5 1006.4 0.0
18/12:00am 29.1 32.8 24.6 76 3.1 WSW 13 17 7 9 1006.7 1006.6 0.0
 
Date/Time
WST
Temp
°C
App
Temp
°C
Dew
Point
Rel
Hum
%
Delta-T
°C
Wind Press
QNH
hPa
Press
MSL
hPa
Rain
since 9 am
mm
Dir
 
Spd
km/h
Gust
km/h
Spd
kts
Gust
kts
17/11:30pm 29.4 33.5 25.2 78 3.0 WSW 13 17 7 9 1006.9 1006.8 0.0
17/11:00pm 29.9 33.5 25.0 75 3.4 W 15 17 8 9 1007.1 1007.0 0.0
17/10:30pm 30.3 33.5 24.9 73 3.8 W 17 20 9 11 1007.2 1007.1 0.0
17/10:00pm 30.6 33.4 25.0 72 3.9 W 19 24 10 13 1006.9 1006.8 0.0
17/09:30pm 30.9 33.2 25.0 71 4.2 W 22 26 12 14 1006.5 1006.4 0.0
17/09:00pm 31.3 35.1 25.9 73 3.9 WNW 17 22 9 12 1006.3 1006.2 0.0
17/08:30pm 31.3 35.1 25.9 73 3.8 WNW 17 20 9 11 1006.2 1006.1 0.0
17/08:00pm 31.4 34.8 25.3 70 4.3 NW 17 20 9 11 1006.1 1006.0 0.0
17/07:30pm 31.4 34.6 25.5 71 4.2 NW 19 22 10 12 1005.7 1005.6 0.0
17/07:00pm 31.9 34.4 24.7 65 5.1 NW 20 24 11 13 1005.1 1005.0 0.0
17/06:30pm 32.8 35.1 23.4 57 6.5 NW 17 20 9 11 1004.7 1004.6 0.0
17/06:00pm 33.3 35.5 24.2 59 6.4 NNW 20 22 11 12 1004.6 1004.5 0.0
17/05:30pm 33.6 35.8 24.8 60 6.2 NNW 22 26 12 14 1004.3 1004.2 0.0
17/05:00pm 34.8 38.2 25.3 57 6.8 NNW 17 20 9 11 1004.2 1004.1 0.0
17/04:30pm 35.3 38.1 23.6 50 8.2 WNW 15 20 8 11 1004.1 1004.0 0.0
17/04:00pm 35.8 40.3 23.7 49 8.5 W 6 13 3 7 1004.0 1003.9 0.0
17/03:30pm 35.8 40.0 24.7 52 7.9 WSW 11 17 6 9 1003.8 1003.7 0.0
17/03:00pm 35.6 40.0 24.5 52 7.9 WSW 9 15 5 8 1003.7 1003.6 0.0
17/02:30pm 35.0 38.7 25.2 57 7.0 WNW 15 20 8 11 1004.1 1004.0 0.0
17/02:00pm 34.5 37.0 24.7 56 6.9 NNW 20 30 11 16 1004.5 1004.4 0.0

Other Formats:

Comma delimited format used in spreadsheet applications
http://www.bom.gov.au/fwo/IDW60801/IDW60801.95205.axf

JavaScript Object Notation format (JSON) in row-major order
http://www.bom.gov.au/fwo/IDW60801/IDW60801.95205.json